sensor_id;sensor_type;location;lat;lon;timestamp;pressure;altitude;pressure_sealevel;temperature;humidity
74708;BME280;63360;50.104;8.074;2023-02-28T00:01:05;98135.13;;;-1.67;72.33
74708;BME280;63360;50.104;8.074;2023-02-28T00:03:32;98120.84;;;-1.68;72.52
74708;BME280;63360;50.104;8.074;2023-02-28T00:06:03;98114.72;;;-1.61;72.38
74708;BME280;63360;50.104;8.074;2023-02-28T00:08:30;98130.00;;;-1.61;73.28
74708;BME280;63360;50.104;8.074;2023-02-28T00:11:03;98121.81;;;-1.69;73.67
74708;BME280;63360;50.104;8.074;2023-02-28T00:13:29;98127.63;;;-1.49;73.10
74708;BME280;63360;50.104;8.074;2023-02-28T00:16:01;98110.56;;;-1.55;72.88
74708;BME280;63360;50.104;8.074;2023-02-28T00:18:27;98123.31;;;-1.55;72.78
74708;BME280;63360;50.104;8.074;2023-02-28T00:20:57;98119.59;;;-1.59;73.28
74708;BME280;63360;50.104;8.074;2023-02-28T00:23:24;98122.38;;;-1.61;74.15
74708;BME280;63360;50.104;8.074;2023-02-28T00:25:51;98117.28;;;-1.67;74.22
74708;BME280;63360;50.104;8.074;2023-02-28T00:28:17;98118.09;;;-1.73;74.21
74708;BME280;63360;50.104;8.074;2023-02-28T00:30:44;98133.81;;;-1.76;75.52
74708;BME280;63360;50.104;8.074;2023-02-28T00:33:11;98133.59;;;-1.75;76.25
74708;BME280;63360;50.104;8.074;2023-02-28T00:35:37;98128.13;;;-1.78;75.54
74708;BME280;63360;50.104;8.074;2023-02-28T00:38:04;98116.00;;;-1.90;75.79
74708;BME280;63360;50.104;8.074;2023-02-28T00:40:30;98132.06;;;-1.76;74.88
74708;BME280;63360;50.104;8.074;2023-02-28T00:42:57;98126.97;;;-1.83;75.50
74708;BME280;63360;50.104;8.074;2023-02-28T00:45:23;98120.16;;;-1.95;75.44
74708;BME280;63360;50.104;8.074;2023-02-28T00:47:50;98120.94;;;-2.01;76.32
74708;BME280;63360;50.104;8.074;2023-02-28T00:50:18;98111.94;;;-2.04;75.97
74708;BME280;63360;50.104;8.074;2023-02-28T00:52:44;98134.09;;;-2.04;76.54
74708;BME280;63360;50.104;8.074;2023-02-28T00:55:11;98111.19;;;-2.17;77.12
74708;BME280;63360;50.104;8.074;2023-02-28T00:57:37;98122.56;;;-2.13;77.62
74708;BME280;63360;50.104;8.074;2023-02-28T01:00:04;98120.41;;;-2.23;78.42
74708;BME280;63360;50.104;8.074;2023-02-28T01:02:31;98119.25;;;-2.27;77.73
74708;BME280;63360;50.104;8.074;2023-02-28T01:04:57;98124.31;;;-2.20;80.34
74708;BME280;63360;50.104;8.074;2023-02-28T01:07:24;98133.38;;;-2.24;79.42
74708;BME280;63360;50.104;8.074;2023-02-28T01:09:50;98118.28;;;-2.32;79.91
74708;BME280;63360;50.104;8.074;2023-02-28T01:12:17;98129.47;;;-2.27;79.22
74708;BME280;63360;50.104;8.074;2023-02-28T01:14:43;98110.66;;;-2.32;78.88
74708;BME280;63360;50.104;8.074;2023-02-28T01:17:09;98113.81;;;-2.43;80.05
74708;BME280;63360;50.104;8.074;2023-02-28T01:19:36;98114.59;;;-2.50;79.00
74708;BME280;63360;50.104;8.074;2023-02-28T01:22:04;98114.00;;;-2.52;81.29
74708;BME280;63360;50.104;8.074;2023-02-28T01:24:31;98107.16;;;-2.58;80.42
74708;BME280;63360;50.104;8.074;2023-02-28T01:26:59;98118.34;;;-2.59;80.21
74708;BME280;63360;50.104;8.074;2023-02-28T01:29:26;98119.31;;;-2.60;81.37
74708;BME280;63360;50.104;8.074;2023-02-28T01:31:52;98107.34;;;-2.66;81.29
74708;BME280;63360;50.104;8.074;2023-02-28T01:34:18;98119.91;;;-2.64;81.11
74708;BME280;63360;50.104;8.074;2023-02-28T01:36:45;98113.63;;;-2.68;81.65
74708;BME280;63360;50.104;8.074;2023-02-28T01:39:12;98114.22;;;-2.73;82.91
74708;BME280;63360;50.104;8.074;2023-02-28T01:41:39;98115.41;;;-2.75;82.95
74708;BME280;63360;50.104;8.074;2023-02-28T01:47:11;98098.78;;;-2.91;83.79
74708;BME280;63360;50.104;8.074;2023-02-28T01:49:39;98095.25;;;-2.96;83.91
74708;BME280;63360;50.104;8.074;2023-02-28T01:52:06;98105.03;;;-2.87;84.83
74708;BME280;63360;50.104;8.074;2023-02-28T01:54:34;98104.81;;;-2.92;84.88
74708;BME280;63360;50.104;8.074;2023-02-28T01:57:07;98101.50;;;-2.99;85.66
74708;BME280;63360;50.104;8.074;2023-02-28T02:00:02;98100.13;;;-2.95;86.67
74708;BME280;63360;50.104;8.074;2023-02-28T02:02:27;98105.41;;;-2.96;87.36
74708;BME280;63360;50.104;8.074;2023-02-28T02:04:58;98092.09;;;-3.05;86.77
74708;BME280;63360;50.104;8.074;2023-02-28T02:07:40;98101.69;;;-2.94;87.57
74708;BME280;63360;50.104;8.074;2023-02-28T02:10:13;98103.28;;;-2.93;87.21
74708;BME280;63360;50.104;8.074;2023-02-28T02:13:10;98103.47;;;-3.01;87.71
74708;BME280;63360;50.104;8.074;2023-02-28T02:18:53;98097.00;;;-3.10;88.27
74708;BME280;63360;50.104;8.074;2023-02-28T02:27:08;98093.28;;;-3.21;89.35
74708;BME280;63360;50.104;8.074;2023-02-28T02:38:11;98088.75;;;-3.38;91.60
74708;BME280;63360;50.104;8.074;2023-02-28T02:40:49;98076.81;;;-3.44;91.82
74708;BME280;63360;50.104;8.074;2023-02-28T02:43:22;98086.63;;;-3.28;93.78
74708;BME280;63360;50.104;8.074;2023-02-28T02:45:57;98093.03;;;-3.32;92.67
74708;BME280;63360;50.104;8.074;2023-02-28T02:48:29;98088.16;;;-3.34;92.27
74708;BME280;63360;50.104;8.074;2023-02-28T02:51:00;98076.81;;;-3.44;93.03
74708;BME280;63360;50.104;8.074;2023-02-28T02:53:32;98080.50;;;-3.40;92.32
74708;BME280;63360;50.104;8.074;2023-02-28T02:56:01;98073.47;;;-3.45;92.73
74708;BME280;63360;50.104;8.074;2023-02-28T02:58:32;98078.16;;;-3.48;93.04
74708;BME280;63360;50.104;8.074;2023-02-28T03:01:02;98081.50;;;-3.54;93.28
74708;BME280;63360;50.104;8.074;2023-02-28T03:03:30;98092.06;;;-3.44;92.99
74708;BME280;63360;50.104;8.074;2023-02-28T03:06:00;98085.22;;;-3.44;93.07
74708;BME280;63360;50.104;8.074;2023-02-28T03:08:29;98081.28;;;-3.59;92.90
74708;BME280;63360;50.104;8.074;2023-02-28T03:10:57;98090.84;;;-3.68;93.76
74708;BME280;63360;50.104;8.074;2023-02-28T03:21:40;98096.09;;;-3.70;94.72
74708;BME280;63360;50.104;8.074;2023-02-28T03:24:12;98086.09;;;-3.78;95.54
74708;BME280;63360;50.104;8.074;2023-02-28T03:26:50;98072.41;;;-3.83;95.14
74708;BME280;63360;50.104;8.074;2023-02-28T03:29:28;98078.66;;;-3.86;94.86
74708;BME280;63360;50.104;8.074;2023-02-28T03:32:02;98078.25;;;-3.89;94.99
74708;BME280;63360;50.104;8.074;2023-02-28T03:34:37;98078.44;;;-3.97;95.11
74708;BME280;63360;50.104;8.074;2023-02-28T03:37:08;98074.88;;;-4.03;95.30
74708;BME280;63360;50.104;8.074;2023-02-28T03:42:09;98078.00;;;-4.07;96.08
74708;BME280;63360;50.104;8.074;2023-02-28T03:47:10;98079.16;;;-4.10;96.87
74708;BME280;63360;50.104;8.074;2023-02-28T03:49:56;98094.84;;;-4.00;97.58
74708;BME280;63360;50.104;8.074;2023-02-28T03:52:27;98092.66;;;-4.03;97.02
74708;BME280;63360;50.104;8.074;2023-02-28T03:55:02;98097.34;;;-4.06;97.08
74708;BME280;63360;50.104;8.074;2023-02-28T04:00:15;98094.22;;;-4.08;97.56
74708;BME280;63360;50.104;8.074;2023-02-28T04:02:43;98087.31;;;-4.21;97.04
74708;BME280;63360;50.104;8.074;2023-02-28T04:05:09;98095.53;;;-4.19;96.75
74708;BME280;63360;50.104;8.074;2023-02-28T04:07:36;98096.50;;;-4.20;97.47
74708;BME280;63360;50.104;8.074;2023-02-28T04:10:03;98101.19;;;-4.17;97.82
74708;BME280;63360;50.104;8.074;2023-02-28T04:12:30;98090.88;;;-4.15;99.47
74708;BME280;63360;50.104;8.074;2023-02-28T04:14:57;98094.00;;;-4.13;98.86
74708;BME280;63360;50.104;8.074;2023-02-28T04:17:23;98087.16;;;-4.13;98.66
74708;BME280;63360;50.104;8.074;2023-02-28T04:19:49;98088.72;;;-4.12;97.71
74708;BME280;63360;50.104;8.074;2023-02-28T04:22:16;98087.75;;;-4.04;97.48
74708;BME280;63360;50.104;8.074;2023-02-28T04:24:44;98091.50;;;-4.00;97.92
74708;BME280;63360;50.104;8.074;2023-02-28T04:27:10;98077.44;;;-4.03;97.49
74708;BME280;63360;50.104;8.074;2023-02-28T04:29:37;98080.75;;;-4.02;96.67
74708;BME280;63360;50.104;8.074;2023-02-28T04:32:03;98083.47;;;-4.04;96.68
74708;BME280;63360;50.104;8.074;2023-02-28T04:34:31;98077.81;;;-4.06;97.44
74708;BME280;63360;50.104;8.074;2023-02-28T04:36:58;98083.31;;;-3.96;97.38
74708;BME280;63360;50.104;8.074;2023-02-28T04:39:38;98096.25;;;-3.84;98.11
74708;BME280;63360;50.104;8.074;2023-02-28T04:42:05;98079.84;;;-3.82;97.66
74708;BME280;63360;50.104;8.074;2023-02-28T04:44:31;98086.88;;;-3.84;96.51
74708;BME280;63360;50.104;8.074;2023-02-28T04:46:58;98081.97;;;-3.85;96.07
74708;BME280;63360;50.104;8.074;2023-02-28T04:49:25;98073.19;;;-3.89;95.80
74708;BME280;63360;50.104;8.074;2023-02-28T04:51:51;98080.81;;;-3.83;95.62
74708;BME280;63360;50.104;8.074;2023-02-28T04:54:19;98073.56;;;-3.92;95.52
74708;BME280;63360;50.104;8.074;2023-02-28T04:56:45;98078.44;;;-3.97;95.30
74708;BME280;63360;50.104;8.074;2023-02-28T04:59:12;98091.19;;;-3.84;96.88
74708;BME280;63360;50.104;8.074;2023-02-28T05:01:38;98075.53;;;-3.88;96.05
74708;BME280;63360;50.104;8.074;2023-02-28T05:04:05;98082.34;;;-3.88;95.83
74708;BME280;63360;50.104;8.074;2023-02-28T05:06:33;98071.00;;;-3.92;96.36
74708;BME280;63360;50.104;8.074;2023-02-28T05:08:59;98086.09;;;-3.84;96.06
74708;BME280;63360;50.104;8.074;2023-02-28T05:11:29;98093.75;;;-3.71;95.63
74708;BME280;63360;50.104;8.074;2023-02-28T05:14:04;98099.63;;;-3.71;94.60
74708;BME280;63360;50.104;8.074;2023-02-28T05:16:31;98097.44;;;-3.87;94.30
74708;BME280;63360;50.104;8.074;2023-02-28T05:18:58;98104.00;;;-3.99;95.04
74708;BME280;63360;50.104;8.074;2023-02-28T05:21:31;98107.00;;;-3.89;95.39
74708;BME280;63360;50.104;8.074;2023-02-28T05:24:01;98101.84;;;-4.02;95.17
74708;BME280;63360;50.104;8.074;2023-02-28T05:26:28;98091.81;;;-4.16;95.99
74708;BME280;63360;50.104;8.074;2023-02-28T05:28:55;98094.63;;;-4.05;95.68
74708;BME280;63360;50.104;8.074;2023-02-28T05:31:22;98100.81;;;-4.14;95.44
74708;BME280;63360;50.104;8.074;2023-02-28T05:33:49;98095.72;;;-4.20;96.93
74708;BME280;63360;50.104;8.074;2023-02-28T05:36:15;98115.09;;;-4.13;96.33
74708;BME280;63360;50.104;8.074;2023-02-28T05:38:41;98106.84;;;-4.21;96.57
74708;BME280;63360;50.104;8.074;2023-02-28T05:41:09;98110.34;;;-4.22;97.46
74708;BME280;63360;50.104;8.074;2023-02-28T05:43:37;98097.22;;;-4.33;97.07
74708;BME280;63360;50.104;8.074;2023-02-28T05:46:08;98094.09;;;-4.35;97.32
74708;BME280;63360;50.104;8.074;2023-02-28T05:48:37;98105.09;;;-4.21;96.97
74708;BME280;63360;50.104;8.074;2023-02-28T05:51:04;98107.03;;;-4.23;97.19
74708;BME280;63360;50.104;8.074;2023-02-28T05:53:32;98109.38;;;-4.21;97.13
74708;BME280;63360;50.104;8.074;2023-02-28T05:55:59;98101.56;;;-4.20;97.13
74708;BME280;63360;50.104;8.074;2023-02-28T05:58:26;98108.81;;;-4.17;97.19
74708;BME280;63360;50.104;8.074;2023-02-28T06:01:00;98105.31;;;-4.16;96.73
74708;BME280;63360;50.104;8.074;2023-02-28T06:03:27;98097.69;;;-4.16;96.28
74708;BME280;63360;50.104;8.074;2023-02-28T06:05:54;98101.03;;;-4.09;96.88
74708;BME280;63360;50.104;8.074;2023-02-28T06:08:20;98102.03;;;-4.10;96.84
74708;BME280;63360;50.104;8.074;2023-02-28T06:10:47;98110.72;;;-3.91;97.64
74708;BME280;63360;50.104;8.074;2023-02-28T06:13:13;98108.38;;;-3.86;97.49
74708;BME280;63360;50.104;8.074;2023-02-28T06:15:39;98114.47;;;-3.74;97.24
74708;BME280;63360;50.104;8.074;2023-02-28T06:18:06;98105.47;;;-3.77;96.52
74708;BME280;63360;50.104;8.074;2023-02-28T06:20:33;98115.69;;;-3.63;96.49
74708;BME280;63360;50.104;8.074;2023-02-28T06:23:00;98126.06;;;-3.58;95.90
74708;BME280;63360;50.104;8.074;2023-02-28T06:25:27;98119.63;;;-3.54;95.67
74708;BME280;63360;50.104;8.074;2023-02-28T06:27:54;98114.75;;;-3.43;95.36
74708;BME280;63360;50.104;8.074;2023-02-28T06:30:21;98120.22;;;-3.46;94.44
74708;BME280;63360;50.104;8.074;2023-02-28T06:32:54;98127.50;;;-3.30;93.92
74708;BME280;63360;50.104;8.074;2023-02-28T06:35:21;98122.41;;;-3.36;93.47
74708;BME280;63360;50.104;8.074;2023-02-28T06:37:48;98123.97;;;-3.42;93.71
74708;BME280;63360;50.104;8.074;2023-02-28T06:40:15;98112.22;;;-3.49;93.91
74708;BME280;63360;50.104;8.074;2023-02-28T06:42:41;98132.19;;;-3.33;93.73
74708;BME280;63360;50.104;8.074;2023-02-28T06:45:10;98133.94;;;-3.34;93.91
74708;BME280;63360;50.104;8.074;2023-02-28T06:47:38;98132.75;;;-3.38;93.34
74708;BME280;63360;50.104;8.074;2023-02-28T06:50:06;98138.66;;;-3.24;93.30
74708;BME280;63360;50.104;8.074;2023-02-28T06:52:33;98141.03;;;-3.16;93.06
74708;BME280;63360;50.104;8.074;2023-02-28T06:55:06;98142.78;;;-3.17;91.43
74708;BME280;63360;50.104;8.074;2023-02-28T06:57:35;98133.59;;;-3.18;91.96
74708;BME280;63360;50.104;8.074;2023-02-28T07:00:06;98136.72;;;-3.22;91.59
74708;BME280;63360;50.104;8.074;2023-02-28T07:02:35;98137.50;;;-3.15;91.67
74708;BME280;63360;50.104;8.074;2023-02-28T07:05:01;98140.66;;;-3.07;91.30
74708;BME280;63360;50.104;8.074;2023-02-28T07:07:29;98151.44;;;-2.91;90.38
74708;BME280;63360;50.104;8.074;2023-02-28T07:09:55;98141.28;;;-2.85;88.96
74708;BME280;63360;50.104;8.074;2023-02-28T07:12:22;98141.66;;;-2.88;89.40
74708;BME280;63360;50.104;8.074;2023-02-28T07:14:48;98140.09;;;-2.82;88.93
74708;BME280;63360;50.104;8.074;2023-02-28T07:17:15;98151.25;;;-2.64;87.27
74708;BME280;63360;50.104;8.074;2023-02-28T07:19:41;98145.16;;;-2.63;87.46
74708;BME280;63360;50.104;8.074;2023-02-28T07:22:08;98149.69;;;-2.58;85.79
74708;BME280;63360;50.104;8.074;2023-02-28T07:24:34;98157.91;;;-2.56;85.69
74708;BME280;63360;50.104;8.074;2023-02-28T07:27:00;98164.19;;;-2.59;84.59
74708;BME280;63360;50.104;8.074;2023-02-28T07:29:27;98154.38;;;-2.55;85.86
74708;BME280;63360;50.104;8.074;2023-02-28T07:31:54;98149.47;;;-2.50;83.82
74708;BME280;63360;50.104;8.074;2023-02-28T07:34:21;98153.19;;;-2.46;83.73
74708;BME280;63360;50.104;8.074;2023-02-28T07:36:47;98145.53;;;-2.53;82.80
74708;BME280;63360;50.104;8.074;2023-02-28T07:39:14;98157.13;;;-2.37;82.50
74708;BME280;63360;50.104;8.074;2023-02-28T07:41:40;98157.09;;;-2.30;82.29
74708;BME280;63360;50.104;8.074;2023-02-28T07:44:10;98162.97;;;-2.30;82.23
74708;BME280;63360;50.104;8.074;2023-02-28T07:46:37;98160.22;;;-2.22;80.13
74708;BME280;63360;50.104;8.074;2023-02-28T07:49:04;98159.59;;;-2.04;80.87
74708;BME280;63360;50.104;8.074;2023-02-28T07:51:31;98147.22;;;-2.01;80.23
74708;BME280;63360;50.104;8.074;2023-02-28T07:53:57;98153.66;;;-1.92;78.70
74708;BME280;63360;50.104;8.074;2023-02-28T07:56:24;98154.63;;;-1.86;77.42
74708;BME280;63360;50.104;8.074;2023-02-28T07:58:50;98146.22;;;-1.87;78.33
74708;BME280;63360;50.104;8.074;2023-02-28T08:01:17;98157.28;;;-1.61;78.23
74708;BME280;63360;50.104;8.074;2023-02-28T08:03:51;98154.34;;;-1.58;75.65
74708;BME280;63360;50.104;8.074;2023-02-28T08:06:21;98146.84;;;-1.53;75.26
74708;BME280;63360;50.104;8.074;2023-02-28T08:08:47;98160.53;;;-1.41;74.69
74708;BME280;63360;50.104;8.074;2023-02-28T08:11:16;98150.28;;;-1.35;76.02
74708;BME280;63360;50.104;8.074;2023-02-28T08:13:43;98151.56;;;-1.19;73.45
74708;BME280;63360;50.104;8.074;2023-02-28T08:16:11;98146.13;;;-1.23;74.24
74708;BME280;63360;50.104;8.074;2023-02-28T08:18:38;98152.25;;;-0.99;74.20
74708;BME280;63360;50.104;8.074;2023-02-28T08:21:08;98149.53;;;-0.54;70.90
74708;BME280;63360;50.104;8.074;2023-02-28T08:23:35;98144.34;;;-0.23;69.45
74708;BME280;63360;50.104;8.074;2023-02-28T08:26:02;98144.00;;;-0.09;68.60
74708;BME280;63360;50.104;8.074;2023-02-28T08:28:29;98145.91;;;0.14;68.70
74708;BME280;63360;50.104;8.074;2023-02-28T08:30:55;98146.78;;;0.26;67.20
74708;BME280;63360;50.104;8.074;2023-02-28T08:33:23;98146.75;;;0.44;66.44
74708;BME280;63360;50.104;8.074;2023-02-28T08:35:52;98168.16;;;0.61;67.00
74708;BME280;63360;50.104;8.074;2023-02-28T08:38:20;98154.50;;;0.97;65.81
74708;BME280;63360;50.104;8.074;2023-02-28T08:40:47;98152.97;;;1.08;63.63
74708;BME280;63360;50.104;8.074;2023-02-28T08:43:13;98140.81;;;1.03;65.57
74708;BME280;63360;50.104;8.074;2023-02-28T08:45:39;98139.94;;;1.09;60.78
74708;BME280;63360;50.104;8.074;2023-02-28T08:48:06;98149.38;;;0.97;61.38
74708;BME280;63360;50.104;8.074;2023-02-28T08:50:33;98151.03;;;0.92;58.54
74708;BME280;63360;50.104;8.074;2023-02-28T08:52:59;98154.88;;;0.83;54.95
74708;BME280;63360;50.104;8.074;2023-02-28T08:55:26;98135.94;;;0.72;54.37
74708;BME280;63360;50.104;8.074;2023-02-28T08:57:52;98151.75;;;1.10;55.77
74708;BME280;63360;50.104;8.074;2023-02-28T09:00:19;98142.25;;;0.58;54.20
74708;BME280;63360;50.104;8.074;2023-02-28T09:02:45;98156.69;;;0.52;55.53
74708;BME280;63360;50.104;8.074;2023-02-28T09:05:12;98136.28;;;0.46;55.63
74708;BME280;63360;50.104;8.074;2023-02-28T09:07:38;98156.13;;;0.32;56.05
74708;BME280;63360;50.104;8.074;2023-02-28T09:10:05;98138.34;;;0.37;55.72
74708;BME280;63360;50.104;8.074;2023-02-28T09:12:33;98152.00;;;0.49;55.59
74708;BME280;63360;50.104;8.074;2023-02-28T09:15:01;98142.47;;;0.38;55.95
74708;BME280;63360;50.104;8.074;2023-02-28T09:17:27;98146.94;;;0.43;56.98
74708;BME280;63360;50.104;8.074;2023-02-28T09:19:56;98150.13;;;0.56;55.24
74708;BME280;63360;50.104;8.074;2023-02-28T09:22:23;98138.28;;;0.44;55.11
74708;BME280;63360;50.104;8.074;2023-02-28T09:24:49;98148.59;;;0.67;56.20
74708;BME280;63360;50.104;8.074;2023-02-28T09:27:16;98134.81;;;0.68;56.13
74708;BME280;63360;50.104;8.074;2023-02-28T09:29:42;98133.25;;;0.67;55.51
74708;BME280;63360;50.104;8.074;2023-02-28T09:32:08;98142.69;;;0.67;55.51
74708;BME280;63360;50.104;8.074;2023-02-28T09:34:35;98133.41;;;0.54;56.13
74708;BME280;63360;50.104;8.074;2023-02-28T09:37:03;98142.44;;;0.56;55.58
74708;BME280;63360;50.104;8.074;2023-02-28T09:39:29;98151.06;;;0.44;56.35
74708;BME280;63360;50.104;8.074;2023-02-28T09:41:56;98147.41;;;0.40;57.18
74708;BME280;63360;50.104;8.074;2023-02-28T09:44:32;98139.72;;;0.40;56.87
74708;BME280;63360;50.104;8.074;2023-02-28T09:47:07;98160.19;;;0.40;56.86
74708;BME280;63360;50.104;8.074;2023-02-28T09:49:41;98137.66;;;0.30;57.10
74708;BME280;63360;50.104;8.074;2023-02-28T09:52:34;98160.72;;;0.60;57.34
74708;BME280;63360;50.104;8.074;2023-02-28T09:55:28;98147.84;;;0.48;57.33
74708;BME280;63360;50.104;8.074;2023-02-28T09:58:00;98150.09;;;0.45;57.15
74708;BME280;63360;50.104;8.074;2023-02-28T10:00:33;98147.72;;;0.43;57.98
74708;BME280;63360;50.104;8.074;2023-02-28T10:05:38;98151.13;;;0.37;55.89
74708;BME280;63360;50.104;8.074;2023-02-28T10:08:19;98147.31;;;0.28;56.81
74708;BME280;63360;50.104;8.074;2023-02-28T10:10:59;98159.53;;;0.08;55.97
74708;BME280;63360;50.104;8.074;2023-02-28T10:13:56;98163.16;;;0.19;57.32
74708;BME280;63360;50.104;8.074;2023-02-28T10:16:32;98154.44;;;0.08;56.23
74708;BME280;63360;50.104;8.074;2023-02-28T10:19:05;98163.47;;;0.11;57.29
74708;BME280;63360;50.104;8.074;2023-02-28T10:21:39;98156.97;;;0.08;56.94
74708;BME280;63360;50.104;8.074;2023-02-28T10:27:01;98151.44;;;-0.07;57.53
74708;BME280;63360;50.104;8.074;2023-02-28T10:29:31;98162.88;;;-0.10;57.13
74708;BME280;63360;50.104;8.074;2023-02-28T10:32:01;98160.47;;;-0.05;57.53
74708;BME280;63360;50.104;8.074;2023-02-28T10:34:28;98164.81;;;-0.05;57.48
74708;BME280;63360;50.104;8.074;2023-02-28T10:36:55;98151.53;;;0.05;58.03
74708;BME280;63360;50.104;8.074;2023-02-28T10:39:54;98167.22;;;0.44;56.54
74708;BME280;63360;50.104;8.074;2023-02-28T10:42:28;98161.81;;;0.52;56.41
74708;BME280;63360;50.104;8.074;2023-02-28T10:45:18;98170.53;;;0.63;56.29
74708;BME280;63360;50.104;8.074;2023-02-28T10:47:56;98161.84;;;0.64;55.54
74708;BME280;63360;50.104;8.074;2023-02-28T10:55:43;98165.78;;;0.48;55.86
74708;BME280;63360;50.104;8.074;2023-02-28T10:58:23;98163.81;;;0.32;55.94
74708;BME280;63360;50.104;8.074;2023-02-28T11:00:51;98168.84;;;0.39;56.00
74708;BME280;63360;50.104;8.074;2023-02-28T11:03:33;98169.00;;;0.74;56.66
74708;BME280;63360;50.104;8.074;2023-02-28T11:06:29;98151.09;;;0.85;55.64
74708;BME280;63360;50.104;8.074;2023-02-28T11:09:03;98144.56;;;0.89;56.63
74708;BME280;63360;50.104;8.074;2023-02-28T11:11:42;98144.13;;;1.04;54.88
74708;BME280;63360;50.104;8.074;2023-02-28T11:14:20;98133.22;;;0.97;53.77
74708;BME280;63360;50.104;8.074;2023-02-28T11:16:48;98162.53;;;1.01;54.21
74708;BME280;63360;50.104;8.074;2023-02-28T11:19:38;98146.22;;;0.84;53.92
74708;BME280;63360;50.104;8.074;2023-02-28T11:22:06;98148.72;;;0.72;54.32
74708;BME280;63360;50.104;8.074;2023-02-28T11:24:45;98148.91;;;0.59;55.33
74708;BME280;63360;50.104;8.074;2023-02-28T11:30:03;98150.06;;;0.75;55.21
74708;BME280;63360;50.104;8.074;2023-02-28T11:32:30;98125.38;;;0.80;54.24
74708;BME280;63360;50.104;8.074;2023-02-28T11:37:35;98133.13;;;1.03;52.73
74708;BME280;63360;50.104;8.074;2023-02-28T11:40:05;98128.25;;;1.13;53.15
74708;BME280;63360;50.104;8.074;2023-02-28T11:53:42;98141.88;;;1.72;52.37
74708;BME280;63360;50.104;8.074;2023-02-28T11:56:36;98132.28;;;1.33;52.21
74708;BME280;63360;50.104;8.074;2023-02-28T12:10:29;98132.41;;;1.72;52.80
74708;BME280;63360;50.104;8.074;2023-02-28T12:15:58;98138.66;;;1.53;51.61
74708;BME280;63360;50.104;8.074;2023-02-28T12:21:24;98127.16;;;1.44;52.36
74708;BME280;63360;50.104;8.074;2023-02-28T12:26:41;98120.03;;;1.58;52.69
74708;BME280;63360;50.104;8.074;2023-02-28T12:31:46;98123.81;;;1.67;51.56
74708;BME280;63360;50.104;8.074;2023-02-28T12:34:22;98111.34;;;1.59;52.14
74708;BME280;63360;50.104;8.074;2023-02-28T12:36:53;98120.22;;;1.68;51.98
74708;BME280;63360;50.104;8.074;2023-02-28T12:39:36;98105.75;;;1.62;51.90
74708;BME280;63360;50.104;8.074;2023-02-28T12:42:39;98112.31;;;1.81;52.42
74708;BME280;63360;50.104;8.074;2023-02-28T12:45:10;98113.66;;;1.83;53.79
74708;BME280;63360;50.104;8.074;2023-02-28T12:47:38;98112.09;;;1.82;52.17
74708;BME280;63360;50.104;8.074;2023-02-28T12:50:09;98118.13;;;1.76;52.10
74708;BME280;63360;50.104;8.074;2023-02-28T12:52:54;98119.56;;;1.84;53.36
74708;BME280;63360;50.104;8.074;2023-02-28T12:58:48;98105.53;;;1.75;52.80
74708;BME280;63360;50.104;8.074;2023-02-28T13:04:05;98115.22;;;1.84;53.73
74708;BME280;63360;50.104;8.074;2023-02-28T13:09:13;98095.34;;;1.92;52.45
74708;BME280;63360;50.104;8.074;2023-02-28T13:11:52;98117.22;;;1.82;53.35
74708;BME280;63360;50.104;8.074;2023-02-28T13:14:37;98099.72;;;1.79;53.79
74708;BME280;63360;50.104;8.074;2023-02-28T13:19:41;98091.22;;;1.91;52.48
74708;BME280;63360;50.104;8.074;2023-02-28T13:22:36;98101.91;;;1.99;52.65
74708;BME280;63360;50.104;8.074;2023-02-28T13:27:49;98086.00;;;1.86;51.90
74708;BME280;63360;50.104;8.074;2023-02-28T13:44:07;98100.91;;;2.00;50.49
74708;BME280;63360;50.104;8.074;2023-02-28T13:46:37;98102.22;;;2.03;50.92
74708;BME280;63360;50.104;8.074;2023-02-28T14:00:21;98099.91;;;2.01;52.78
74708;BME280;63360;50.104;8.074;2023-02-28T14:03:14;98102.31;;;2.08;52.69
74708;BME280;63360;50.104;8.074;2023-02-28T14:05:45;98095.22;;;1.98;52.50
74708;BME280;63360;50.104;8.074;2023-02-28T14:08:14;98097.00;;;1.98;52.36
74708;BME280;63360;50.104;8.074;2023-02-28T14:10:48;98081.41;;;1.88;52.19
74708;BME280;63360;50.104;8.074;2023-02-28T14:15:59;98086.28;;;2.01;51.24
74708;BME280;63360;50.104;8.074;2023-02-28T14:18:34;98073.63;;;1.82;52.95
74708;BME280;63360;50.104;8.074;2023-02-28T14:21:11;98088.78;;;1.84;53.82
74708;BME280;63360;50.104;8.074;2023-02-28T14:23:46;98087.66;;;1.92;53.43
74708;BME280;63360;50.104;8.074;2023-02-28T14:26:37;98082.19;;;1.88;55.89
74708;BME280;63360;50.104;8.074;2023-02-28T14:32:15;98082.53;;;1.92;55.27
74708;BME280;63360;50.104;8.074;2023-02-28T14:37:33;98071.50;;;1.91;52.52
74708;BME280;63360;50.104;8.074;2023-02-28T14:40:00;98080.81;;;1.97;55.03
74708;BME280;63360;50.104;8.074;2023-02-28T14:42:31;98075.56;;;2.04;53.40
74708;BME280;63360;50.104;8.074;2023-02-28T14:44:59;98064.13;;;1.83;54.83
74708;BME280;63360;50.104;8.074;2023-02-28T14:47:30;98059.00;;;1.83;55.18
74708;BME280;63360;50.104;8.074;2023-02-28T14:49:58;98063.78;;;1.91;54.59
74708;BME280;63360;50.104;8.074;2023-02-28T14:52:28;98078.94;;;1.93;56.45
74708;BME280;63360;50.104;8.074;2023-02-28T14:55:02;98065.59;;;1.79;55.62
74708;BME280;63360;50.104;8.074;2023-02-28T14:57:32;98052.31;;;1.70;57.05
74708;BME280;63360;50.104;8.074;2023-02-28T15:00:10;98067.25;;;1.73;56.20
74708;BME280;63360;50.104;8.074;2023-02-28T15:02:40;98059.38;;;1.75;55.80
74708;BME280;63360;50.104;8.074;2023-02-28T15:07:36;98071.25;;;1.93;54.98
74708;BME280;63360;50.104;8.074;2023-02-28T15:10:25;98066.91;;;1.93;55.25
74708;BME280;63360;50.104;8.074;2023-02-28T15:13:02;98066.91;;;1.81;56.07
74708;BME280;63360;50.104;8.074;2023-02-28T15:15:44;98067.50;;;1.83;55.88
74708;BME280;63360;50.104;8.074;2023-02-28T15:21:56;98071.38;;;1.86;55.26
74708;BME280;63360;50.104;8.074;2023-02-28T15:26:40;98058.00;;;1.84;54.29
74708;BME280;63360;50.104;8.074;2023-02-28T15:29:12;98072.81;;;1.94;55.78
74708;BME280;63360;50.104;8.074;2023-02-28T15:32:06;98075.28;;;1.89;56.00
74708;BME280;63360;50.104;8.074;2023-02-28T15:34:37;98080.41;;;1.89;55.57
74708;BME280;63360;50.104;8.074;2023-02-28T15:37:45;98079.53;;;1.83;56.00
74708;BME280;63360;50.104;8.074;2023-02-28T15:42:41;98072.97;;;1.64;57.35
74708;BME280;63360;50.104;8.074;2023-02-28T15:45:30;98080.53;;;1.70;57.86
74708;BME280;63360;50.104;8.074;2023-02-28T15:47:58;98069.38;;;1.76;56.69